createdAt,value
2019-02-22T00:00:19.213Z,19
2019-02-22T00:01:19.066Z,19
2019-02-22T00:02:19.222Z,19.25
2019-02-22T00:03:19.309Z,19
2019-02-22T00:04:19.210Z,19
2019-02-22T00:05:20.756Z,19.25
2019-02-22T00:06:19.326Z,19
2019-02-22T00:07:18.763Z,19
2019-02-22T00:08:20.780Z,19
2019-02-22T00:09:20.874Z,19
2019-02-22T00:10:18.969Z,19
2019-02-22T00:11:19.024Z,19
2019-02-22T00:12:19.505Z,19
2019-02-22T00:13:20.783Z,19
2019-02-22T00:14:18.762Z,19
2019-02-22T00:15:18.701Z,19
2019-02-22T00:16:19.420Z,19
2019-02-22T00:17:19.644Z,19
2019-02-22T00:18:19.044Z,19
2019-02-22T00:19:18.972Z,19
2019-02-22T00:20:19.054Z,19
2019-02-22T00:21:20.621Z,19
2019-02-22T00:22:19.236Z,19
2019-02-22T00:23:19.415Z,19
2019-02-22T00:24:18.909Z,19
2019-02-22T00:25:19.075Z,19
2019-02-22T00:26:18.938Z,19
2019-02-22T00:27:19.070Z,19
2019-02-22T00:28:19.335Z,19
2019-02-22T00:29:19.100Z,19
2019-02-22T00:30:21.779Z,19
2019-02-22T00:31:19.239Z,19
2019-02-22T00:32:18.837Z,19
2019-02-22T00:33:19.068Z,19
2019-02-22T00:34:20.115Z,19
2019-02-22T00:35:20.051Z,19
2019-02-22T00:36:19.537Z,19
2019-02-22T00:37:19.736Z,19
2019-02-22T00:38:19.071Z,19
2019-02-22T00:41:19.325Z,19
2019-02-22T00:42:18.786Z,19
2019-02-22T00:43:18.956Z,19
2019-02-22T00:44:19.146Z,19
2019-02-22T00:45:19.618Z,19
2019-02-22T00:46:19.216Z,19
2019-02-22T00:47:19.313Z,19
2019-02-22T00:48:18.753Z,19
2019-02-22T00:49:18.879Z,19
2019-02-22T00:50:18.753Z,19
2019-02-22T00:51:19.830Z,19
2019-02-22T00:52:19.356Z,19
2019-02-22T00:53:18.899Z,19
2019-02-22T00:54:18.981Z,19
2019-02-22T00:55:19.035Z,19
2019-02-22T00:56:19.799Z,19
2019-02-22T00:57:19.612Z,19
2019-02-22T00:58:19.312Z,19
2019-02-22T00:59:18.779Z,19
2019-02-22T01:00:19.101Z,19
2019-02-22T01:01:19.072Z,19
2019-02-22T01:02:19.346Z,19
2019-02-22T01:03:19.141Z,19
2019-02-22T01:04:19.136Z,19
2019-02-22T01:05:18.953Z,19
2019-02-22T01:06:19.243Z,19
2019-02-22T01:07:19.064Z,19
2019-02-22T01:08:18.936Z,19
2019-02-22T01:09:19.071Z,19
2019-02-22T01:10:18.874Z,19
2019-02-22T01:11:19.500Z,19
2019-02-22T01:12:19.081Z,19
2019-02-22T01:13:18.810Z,19
2019-02-22T01:14:19.357Z,19
2019-02-22T01:15:19.342Z,19
2019-02-22T01:16:18.909Z,18.75
2019-02-22T01:17:18.857Z,18.75
2019-02-22T01:18:18.923Z,19
2019-02-22T01:19:20.387Z,18.75
2019-02-22T01:20:19.020Z,18.75
2019-02-22T01:21:19.322Z,18.75
2019-02-22T01:22:19.161Z,18.75
2019-02-22T01:23:19.296Z,18.75
2019-02-22T01:24:19.017Z,18.75
2019-02-22T01:25:18.899Z,18.75
2019-02-22T01:26:20.820Z,18.75
2019-02-22T01:27:18.720Z,18.75
2019-02-22T01:28:19.641Z,18.75
2019-02-22T01:29:18.985Z,18.75
2019-02-22T01:30:19.049Z,18.75
2019-02-22T01:31:19.098Z,18.75
2019-02-22T01:32:19.067Z,18.75
2019-02-22T01:33:18.875Z,18.75
2019-02-22T01:34:20.837Z,18.75
2019-02-22T01:35:18.918Z,18.75
2019-02-22T01:36:19.054Z,18.75
2019-02-22T01:37:18.843Z,18.75
2019-02-22T01:38:18.710Z,18.75
2019-02-22T01:39:18.729Z,18.75
2019-02-22T01:40:18.897Z,18.75
2019-02-22T01:41:18.737Z,18.75
2019-02-22T01:42:18.805Z,18.75
2019-02-22T01:43:19.029Z,18.75
2019-02-22T01:44:20.231Z,18.75
2019-02-22T01:45:19.244Z,18.75
2019-02-22T01:46:18.775Z,18.75
2019-02-22T01:47:19.241Z,18.75
2019-02-22T01:48:19.046Z,18.75
2019-02-22T01:49:19.213Z,18.75
2019-02-22T01:50:19.191Z,18.75
2019-02-22T01:51:19.211Z,18.75
2019-02-22T01:52:19.084Z,18.75
2019-02-22T01:53:19.327Z,18.75
2019-02-22T01:54:19.718Z,18.75
2019-02-22T01:55:19.099Z,18.75
2019-02-22T01:56:18.884Z,18.75
2019-02-22T01:57:18.693Z,18.75
2019-02-22T01:58:18.767Z,18.75
2019-02-22T01:59:18.865Z,18.75
2019-02-22T02:00:20.776Z,18.75
2019-02-22T02:01:19.189Z,18.75
2019-02-22T02:02:18.659Z,18.75
2019-02-22T02:03:19.047Z,18.75
2019-02-22T02:04:18.841Z,18.75
2019-02-22T02:05:18.767Z,18.75
2019-02-22T02:06:19.171Z,18.75
2019-02-22T02:07:18.766Z,18.75
2019-02-22T02:08:18.854Z,18.75
2019-02-22T02:09:19.153Z,18.75
2019-02-22T02:10:18.739Z,18.75
2019-02-22T02:11:18.917Z,18.75
2019-02-22T02:12:19.015Z,18.75
2019-02-22T02:13:19.011Z,18.75
2019-02-22T02:14:19.247Z,18.75
2019-02-22T02:15:19.068Z,18.75
2019-02-22T02:16:19.005Z,18.75
2019-02-22T02:17:19.144Z,18.75
2019-02-22T02:18:19.678Z,18.75
2019-02-22T02:19:18.804Z,18.75
2019-02-22T02:20:20.023Z,18.75
2019-02-22T02:21:19.167Z,18.75
2019-02-22T02:22:19.416Z,18.75
2019-02-22T02:23:20.818Z,18.75
2019-02-22T02:24:18.826Z,18.75
2019-02-22T02:25:19.730Z,18.75
2019-02-22T02:26:19.940Z,18.75
2019-02-22T02:27:18.648Z,18.75
2019-02-22T02:28:19.786Z,18.75
2019-02-22T02:29:19.131Z,18.75
2019-02-22T02:30:19.273Z,18.75
2019-02-22T02:31:19.108Z,18.75
2019-02-22T02:32:19.273Z,18.75
2019-02-22T02:33:19.290Z,18.75
2019-02-22T02:34:20.820Z,18.75
2019-02-22T02:35:18.824Z,18.75
2019-02-22T02:36:19.100Z,18.75
2019-02-22T02:37:19.313Z,18.75
2019-02-22T02:38:20.971Z,18.75
2019-02-22T02:39:18.941Z,18.75
2019-02-22T02:40:19.551Z,18.75
2019-02-22T02:41:19.150Z,18.75
2019-02-22T02:42:19.079Z,18.75
2019-02-22T02:43:19.180Z,18.75
2019-02-22T02:44:18.952Z,18.75
2019-02-22T02:45:19.473Z,18.75
2019-02-22T02:46:19.459Z,18.75
2019-02-22T02:47:19.927Z,18.75
2019-02-22T02:48:19.907Z,18.75
2019-02-22T02:49:18.999Z,18.75
2019-02-22T02:50:18.962Z,18.75
2019-02-22T02:51:19.867Z,18.75
2019-02-22T02:52:19.609Z,18.5
2019-02-22T02:53:19.190Z,18.75
2019-02-22T02:54:19.421Z,18.75
2019-02-22T02:55:19.239Z,18.75
2019-02-22T02:56:20.781Z,18.75
2019-02-22T02:57:19.522Z,18.75
2019-02-22T02:58:19.157Z,18.5
2019-02-22T02:59:19.449Z,18.75
2019-02-22T03:00:18.923Z,18.5
2019-02-22T03:01:19.067Z,18.5
2019-02-22T03:02:19.166Z,18.5
2019-02-22T03:03:19.389Z,18.75
2019-02-22T03:04:20.658Z,18.5
2019-02-22T03:05:18.957Z,18.5
2019-02-22T03:06:18.805Z,18.5
2019-02-22T03:07:20.709Z,18.5
2019-02-22T03:08:19.633Z,18.5
2019-02-22T03:09:19.004Z,18.5
2019-02-22T03:10:19.058Z,18.5
2019-02-22T03:11:21.575Z,18.5
2019-02-22T03:12:19.106Z,18.5
2019-02-22T03:13:18.759Z,18.5
2019-02-22T03:14:19.342Z,18.5
2019-02-22T03:15:19.757Z,18.5
2019-02-22T03:16:19.007Z,18.5
2019-02-22T03:17:19.057Z,18.5
2019-02-22T03:18:18.970Z,18.5
2019-02-22T03:19:19.155Z,18.5
2019-02-22T03:20:20.637Z,18.5
2019-02-22T03:21:19.103Z,18.5
2019-02-22T03:22:19.822Z,18.5
2019-02-22T03:23:19.428Z,18.5
2019-02-22T03:24:19.313Z,18.5
2019-02-22T03:25:19.071Z,18.5
2019-02-22T03:26:19.039Z,18.5
2019-02-22T03:27:19.188Z,18.5
2019-02-22T03:28:19.033Z,18.5
2019-02-22T03:29:18.956Z,18.5
2019-02-22T03:30:19.930Z,18.5
2019-02-22T03:31:19.745Z,18.5
2019-02-22T03:32:18.785Z,18.5
2019-02-22T03:33:18.997Z,18.5
2019-02-22T03:34:20.026Z,18.5
2019-02-22T03:35:19.074Z,18.5
2019-02-22T03:36:19.031Z,18.5
2019-02-22T03:37:19.228Z,18.5
2019-02-22T03:38:19.125Z,18.5
2019-02-22T03:39:19.246Z,18.5
2019-02-22T03:40:18.751Z,18.5
2019-02-22T03:41:18.870Z,18.5
2019-02-22T03:42:19.288Z,18.5
2019-02-22T03:43:18.977Z,18.5
2019-02-22T03:44:18.823Z,18.5
2019-02-22T03:45:19.186Z,18.5
2019-02-22T03:46:18.990Z,18.5
2019-02-22T03:47:19.093Z,18.5
2019-02-22T03:48:19.238Z,18.5
2019-02-22T03:49:18.981Z,18.5
2019-02-22T03:50:19.217Z,18.5
2019-02-22T03:51:19.440Z,18.5
2019-02-22T03:52:19.540Z,18.5
2019-02-22T03:53:19.218Z,18.5
2019-02-22T03:54:19.240Z,18.5
2019-02-22T03:55:19.244Z,18.5
2019-02-22T03:56:19.068Z,18.5
2019-02-22T03:57:19.959Z,18.5
2019-02-22T03:58:19.083Z,18.5
2019-02-22T03:59:19.190Z,18.5
2019-02-22T04:00:19.916Z,18.5
2019-02-22T04:01:20.661Z,18.5
2019-02-22T04:02:18.985Z,18.5
2019-02-22T04:03:19.081Z,18.5
2019-02-22T04:04:19.127Z,18.5
2019-02-22T04:05:19.006Z,18.5
2019-02-22T04:06:19.319Z,18.5
2019-02-22T04:07:19.241Z,18.5
2019-02-22T04:08:19.150Z,18.5
2019-02-22T04:09:19.208Z,18.5
2019-02-22T04:10:19.242Z,18.5
2019-02-22T04:11:19.067Z,18.5
2019-02-22T04:12:20.022Z,18.5
2019-02-22T04:13:18.897Z,18.5
2019-02-22T04:14:19.767Z,18.5
2019-02-22T04:15:19.101Z,18.5
2019-02-22T04:16:18.820Z,18.5
2019-02-22T04:17:20.728Z,18.5
2019-02-22T04:18:19.609Z,18.5
2019-02-22T04:19:19.347Z,18.5
2019-02-22T04:20:19.020Z,18.5
2019-02-22T04:21:18.907Z,18.5
2019-02-22T04:22:18.951Z,18.5
2019-02-22T04:23:19.261Z,18.5
2019-02-22T04:24:18.971Z,18.5
2019-02-22T04:25:19.106Z,18.5
2019-02-22T04:26:18.977Z,18.5
2019-02-22T04:27:18.833Z,18.5
2019-02-22T04:28:19.673Z,18.5
2019-02-22T04:29:19.179Z,18.5
2019-02-22T04:30:18.702Z,18.5
2019-02-22T04:31:19.142Z,18.5
2019-02-22T04:32:19.094Z,18.5
2019-02-22T04:33:19.121Z,18.5
2019-02-22T04:34:19.328Z,18.5
2019-02-22T04:35:19.729Z,18.5
2019-02-22T04:36:19.355Z,18.5
2019-02-22T04:37:19.132Z,18.5
2019-02-22T04:38:18.959Z,18.5
2019-02-22T04:39:18.936Z,18.5
2019-02-22T04:40:19.075Z,18.5
2019-02-22T04:41:19.248Z,18.5
2019-02-22T04:42:18.967Z,18.5
2019-02-22T04:43:18.994Z,18.5
2019-02-22T04:44:20.774Z,18.5
2019-02-22T04:45:18.977Z,18.5
2019-02-22T04:46:19.421Z,18.5
2019-02-22T04:47:18.992Z,18.5
2019-02-22T04:48:19.141Z,18.5
2019-02-22T04:49:19.117Z,18.5
2019-02-22T04:50:19.143Z,18.5
2019-02-22T04:51:18.869Z,18.5
2019-02-22T04:52:18.971Z,18.5
2019-02-22T04:53:18.981Z,18.5
2019-02-22T04:54:19.071Z,18.5
2019-02-22T04:55:19.650Z,18.5
2019-02-22T04:56:19.270Z,18.5
2019-02-22T04:57:19.266Z,18.5
2019-02-22T04:58:18.774Z,18.5
2019-02-22T04:59:19.009Z,18.5
2019-02-22T05:00:18.667Z,18.5
2019-02-22T05:01:19.132Z,18.5
2019-02-22T05:02:19.078Z,18.5
2019-02-22T05:03:19.116Z,18.5
2019-02-22T05:04:19.058Z,18.5
2019-02-22T05:05:18.720Z,18.5
2019-02-22T05:06:18.697Z,18.5
2019-02-22T05:07:18.959Z,18.5
2019-02-22T05:08:18.895Z,18.5
2019-02-22T05:09:18.730Z,18.5
2019-02-22T05:10:18.897Z,18.5
2019-02-22T05:11:19.126Z,18.5
2019-02-22T05:12:18.726Z,18.75
2019-02-22T05:13:19.267Z,18.75
2019-02-22T05:14:18.892Z,18.75
2019-02-22T05:15:18.876Z,18.75
2019-02-22T05:16:19.112Z,18.75
2019-02-22T05:17:19.025Z,18.75
2019-02-22T05:18:19.957Z,18.75
2019-02-22T05:19:18.919Z,18.75
2019-02-22T05:20:19.402Z,18.75
2019-02-22T05:21:19.152Z,18.75
2019-02-22T05:22:18.771Z,18.75
2019-02-22T05:23:19.279Z,18.75
2019-02-22T05:24:18.872Z,18.75
2019-02-22T05:25:19.361Z,18.75
2019-02-22T05:26:18.932Z,18.75
2019-02-22T05:27:19.334Z,18.75
2019-02-22T05:28:20.951Z,18.75
2019-02-22T05:29:20.652Z,18.75
2019-02-22T05:30:19.344Z,18.75
2019-02-22T05:31:18.794Z,19
2019-02-22T05:32:19.118Z,19
2019-02-22T05:33:19.599Z,19
2019-02-22T05:34:18.666Z,19
2019-02-22T05:35:19.228Z,19
2019-02-22T05:36:19.289Z,19
2019-02-22T05:37:18.811Z,19
2019-02-22T05:38:18.963Z,19
2019-02-22T05:39:19.901Z,19
2019-02-22T05:40:19.272Z,19
2019-02-22T05:41:19.156Z,19
2019-02-22T05:42:23.576Z,19
2019-02-22T05:43:19.115Z,19
2019-02-22T05:44:19.059Z,19
2019-02-22T05:45:18.974Z,19
2019-02-22T05:46:19.439Z,19
2019-02-22T05:47:19.254Z,19
2019-02-22T05:48:18.835Z,19
2019-02-22T05:49:22.813Z,19
2019-02-22T05:50:19.128Z,19
2019-02-22T05:51:18.967Z,19
2019-02-22T05:52:20.640Z,19
2019-02-22T05:53:19.003Z,19.25
2019-02-22T05:54:18.734Z,19.25
2019-02-22T05:55:18.725Z,19.25
2019-02-22T05:56:20.667Z,19.25
2019-02-22T05:57:18.836Z,19.25
2019-02-22T05:58:19.283Z,19.25
2019-02-22T05:59:18.845Z,19.25
2019-02-22T06:00:19.243Z,19.25
2019-02-22T06:01:20.736Z,19.25
2019-02-22T06:02:19.758Z,19.25
2019-02-22T06:03:19.061Z,19.25
2019-02-22T06:04:18.800Z,19.25
2019-02-22T06:05:20.548Z,19.25
2019-02-22T06:06:19.073Z,19.25
2019-02-22T06:07:19.275Z,19.25
2019-02-22T06:08:18.912Z,19.25
2019-02-22T06:09:18.940Z,19.25
2019-02-22T06:10:19.188Z,19.25
2019-02-22T06:11:20.740Z,19.25
2019-02-22T06:12:19.146Z,19.25
2019-02-22T06:13:18.886Z,19.25
2019-02-22T06:14:19.218Z,19.25
2019-02-22T06:15:19.101Z,19.25
2019-02-22T06:16:18.684Z,19.25
2019-02-22T06:17:19.076Z,19.5
2019-02-22T06:18:19.341Z,19.5
2019-02-22T06:19:18.837Z,19.5
2019-02-22T06:20:18.916Z,19.5
2019-02-22T06:21:19.203Z,19.5
2019-02-22T06:22:30.216Z,19.5
2019-02-22T06:23:19.935Z,19.5
2019-02-22T06:24:19.726Z,19.5
2019-02-22T06:25:18.808Z,19.5
2019-02-22T06:26:18.885Z,19.5
2019-02-22T06:27:20.006Z,19.5
2019-02-22T06:28:18.675Z,19.5
2019-02-22T06:29:19.112Z,19.5
2019-02-22T06:30:18.834Z,19.5
2019-02-22T06:31:18.922Z,19.5
2019-02-22T06:32:19.794Z,19.5
2019-02-22T06:33:18.931Z,19.5
2019-02-22T06:34:18.812Z,19.5
2019-02-22T06:35:19.054Z,19.5
2019-02-22T06:36:18.967Z,19.5
2019-02-22T06:37:19.089Z,19.5
2019-02-22T06:38:20.010Z,19.5
2019-02-22T06:39:20.582Z,19.5
2019-02-22T06:40:18.726Z,19.5
2019-02-22T06:41:18.826Z,19.5
2019-02-22T06:42:18.596Z,19.5
2019-02-22T06:43:18.990Z,19.5
2019-02-22T06:44:18.722Z,19.5
2019-02-22T06:45:19.973Z,19.5
2019-02-22T06:46:18.816Z,19.5
2019-02-22T06:47:23.047Z,19.5
2019-02-22T06:48:18.917Z,19.5
2019-02-22T06:49:18.818Z,19.5
2019-02-22T06:50:18.953Z,19.5
2019-02-22T06:51:18.815Z,19.5
2019-02-22T06:52:19.484Z,19.5
2019-02-22T06:53:19.634Z,19.5
2019-02-22T06:54:19.284Z,19.5
2019-02-22T06:55:18.924Z,19.5
2019-02-22T06:56:18.755Z,19.75
2019-02-22T06:57:19.100Z,19.75
2019-02-22T06:58:19.539Z,19.75
2019-02-22T06:59:19.152Z,19.75
2019-02-22T07:00:19.041Z,19.75
2019-02-22T07:01:18.909Z,19.75
2019-02-22T07:02:19.276Z,19.75
2019-02-22T07:03:19.140Z,19.75
2019-02-22T07:04:19.841Z,19.75
2019-02-22T07:05:19.695Z,19.75
2019-02-22T07:06:20.149Z,19.75
2019-02-22T07:07:20.520Z,19.75
2019-02-22T07:08:19.504Z,19.75
2019-02-22T07:09:19.009Z,19.75
2019-02-22T07:10:18.742Z,19.75
2019-02-22T07:11:18.876Z,19.75
2019-02-22T07:12:18.914Z,19.75
2019-02-22T07:13:18.966Z,19.75
2019-02-22T07:14:19.024Z,19.75
2019-02-22T07:15:19.134Z,19.75
2019-02-22T07:16:18.997Z,19.75
2019-02-22T07:17:19.127Z,19.75
2019-02-22T07:18:19.052Z,19.75
2019-02-22T07:19:18.806Z,19.75
2019-02-22T07:20:18.983Z,19.75
2019-02-22T07:21:19.433Z,19.75
2019-02-22T07:22:18.617Z,19.75
2019-02-22T07:23:18.964Z,19.75
2019-02-22T07:24:19.480Z,19.75
2019-02-22T07:25:19.118Z,19.75
2019-02-22T07:26:19.112Z,19.75
2019-02-22T07:27:18.809Z,19.75
2019-02-22T07:28:20.571Z,19.75
2019-02-22T07:29:19.163Z,19.75
2019-02-22T07:30:20.686Z,19.75
2019-02-22T07:31:20.295Z,19.75
2019-02-22T07:32:19.212Z,19.75
2019-02-22T07:33:19.670Z,19.75
2019-02-22T07:34:18.717Z,19.75
2019-02-22T07:35:18.967Z,19.75
2019-02-22T07:36:19.004Z,19.75
2019-02-22T07:37:18.998Z,19.75
2019-02-22T07:38:19.340Z,19.75
2019-02-22T07:39:28.498Z,19.75
2019-02-22T07:40:20.276Z,19.75
2019-02-22T07:41:18.911Z,19.75
2019-02-22T07:42:18.880Z,19.75
2019-02-22T07:43:18.849Z,19.75
2019-02-22T07:44:18.801Z,19.75
2019-02-22T07:45:19.336Z,19.75
2019-02-22T07:46:18.755Z,19.75
2019-02-22T07:47:18.740Z,19.75
2019-02-22T07:48:18.873Z,19.75
2019-02-22T07:49:18.942Z,19.75
2019-02-22T07:50:18.981Z,19.75
2019-02-22T07:51:18.748Z,19.75
2019-02-22T07:52:19.453Z,19.75
2019-02-22T07:53:20.519Z,19.75
2019-02-22T07:54:18.813Z,19.75
2019-02-22T07:55:19.040Z,20
2019-02-22T07:56:19.447Z,20
2019-02-22T07:57:18.691Z,20
2019-02-22T07:58:18.480Z,20
2019-02-22T07:59:18.561Z,20
2019-02-22T08:00:18.804Z,20
2019-02-22T08:01:18.926Z,20
2019-02-22T08:02:19.294Z,20
2019-02-22T08:03:20.886Z,20
2019-02-22T08:04:18.898Z,20
2019-02-22T08:05:18.770Z,20
2019-02-22T08:06:19.099Z,20
2019-02-22T08:07:20.575Z,20
2019-02-22T08:08:19.085Z,20
2019-02-22T08:09:18.870Z,20
2019-02-22T08:10:19.013Z,20
2019-02-22T08:11:18.865Z,20
2019-02-22T08:12:19.778Z,20
2019-02-22T08:13:20.754Z,20
2019-02-22T08:14:19.065Z,20
2019-02-22T08:15:19.453Z,20
2019-02-22T08:16:18.654Z,20
2019-02-22T08:17:20.107Z,20
2019-02-22T08:18:19.090Z,20
2019-02-22T08:19:18.882Z,20
2019-02-22T08:20:19.197Z,20
2019-02-22T08:21:19.200Z,20
2019-02-22T08:22:20.966Z,20
2019-02-22T08:23:18.902Z,20
2019-02-22T08:24:18.636Z,20
2019-02-22T08:25:18.767Z,20
2019-02-22T08:26:18.747Z,20
2019-02-22T08:27:19.108Z,20
2019-02-22T08:28:19.117Z,20
2019-02-22T08:29:19.474Z,20
2019-02-22T08:30:18.755Z,20
2019-02-22T08:31:18.865Z,20
2019-02-22T08:32:18.960Z,20
2019-02-22T08:33:19.182Z,20
2019-02-22T08:34:20.422Z,20
2019-02-22T08:35:18.787Z,20
2019-02-22T08:36:18.873Z,20
2019-02-22T08:37:18.708Z,20
2019-02-22T08:38:19.096Z,20
2019-02-22T08:39:19.015Z,20
2019-02-22T08:40:18.954Z,20
2019-02-22T08:41:18.790Z,20
2019-02-22T08:42:18.841Z,20
2019-02-22T08:43:18.957Z,20
2019-02-22T08:44:18.840Z,20
2019-02-22T08:45:19.673Z,20
2019-02-22T08:46:18.982Z,20
2019-02-22T08:47:18.922Z,20
2019-02-22T08:48:19.584Z,20
2019-02-22T08:49:19.306Z,20
2019-02-22T08:50:18.871Z,20
2019-02-22T08:51:19.135Z,20
2019-02-22T08:52:19.102Z,20
2019-02-22T08:53:19.231Z,20
2019-02-22T08:54:19.439Z,20
2019-02-22T08:55:18.843Z,20
2019-02-22T08:56:19.941Z,20
2019-02-22T08:57:18.951Z,20
2019-02-22T08:58:18.704Z,20
2019-02-22T08:59:19.054Z,20
2019-02-22T09:00:18.675Z,20
2019-02-22T09:01:18.968Z,20
2019-02-22T09:02:18.979Z,20
2019-02-22T09:03:18.863Z,20
2019-02-22T09:04:19.436Z,20
2019-02-22T09:05:18.848Z,20
2019-02-22T09:06:18.626Z,20
2019-02-22T09:07:19.446Z,20
2019-02-22T09:08:18.848Z,20
2019-02-22T09:09:18.757Z,20
2019-02-22T09:10:19.179Z,20
2019-02-22T09:11:18.930Z,20
2019-02-22T09:12:19.010Z,20
2019-02-22T09:13:19.084Z,20
2019-02-22T09:14:18.857Z,20
2019-02-22T09:15:18.864Z,20
2019-02-22T09:16:18.992Z,20
2019-02-22T09:17:19.198Z,20
2019-02-22T09:18:19.422Z,20
2019-02-22T09:19:19.720Z,20
2019-02-22T09:20:18.788Z,20
2019-02-22T09:21:19.437Z,20
2019-02-22T09:22:23.521Z,20
2019-02-22T09:23:19.239Z,20
2019-02-22T09:24:19.475Z,20
2019-02-22T09:25:18.756Z,20
2019-02-22T09:26:18.938Z,20
2019-02-22T09:27:19.064Z,20
2019-02-22T09:28:18.710Z,20
2019-02-22T09:29:19.172Z,20
2019-02-22T09:30:19.206Z,20
2019-02-22T09:31:18.824Z,20
2019-02-22T09:32:19.042Z,20
2019-02-22T09:33:19.101Z,20
2019-02-22T09:34:19.037Z,20
2019-02-22T09:35:19.051Z,20
2019-02-22T09:36:19.147Z,20
2019-02-22T09:37:20.506Z,20
2019-02-22T09:38:18.741Z,20
2019-02-22T09:39:18.777Z,20
2019-02-22T09:40:19.159Z,20
2019-02-22T09:41:20.160Z,20
2019-02-22T09:42:18.882Z,19.75
2019-02-22T09:43:18.872Z,19.75
2019-02-22T09:44:18.932Z,19.75
2019-02-22T09:45:18.788Z,19.75
2019-02-22T09:46:18.680Z,19.75
2019-02-22T09:47:18.861Z,19.75
2019-02-22T09:48:18.824Z,19.75
2019-02-22T09:49:19.047Z,19.75
2019-02-22T09:50:19.369Z,19.75
2019-02-22T09:51:19.006Z,19.75
2019-02-22T09:52:18.564Z,19.75
2019-02-22T09:53:20.608Z,19.75
2019-02-22T09:54:18.614Z,19.5
2019-02-22T09:55:18.927Z,19.5
2019-02-22T09:56:19.778Z,19.5
2019-02-22T09:57:18.867Z,19.5
2019-02-22T09:58:20.544Z,19.5
2019-02-22T09:59:18.895Z,19.5
2019-02-22T10:00:18.777Z,19.75
2019-02-22T10:01:19.450Z,19.75
2019-02-22T10:02:18.836Z,19.75
2019-02-22T10:03:19.546Z,19.5
2019-02-22T10:04:19.089Z,19.5
2019-02-22T10:05:19.056Z,19.5
2019-02-22T10:06:18.644Z,19.5
2019-02-22T10:07:19.156Z,19.5
2019-02-22T10:08:19.129Z,19.5
2019-02-22T10:09:18.745Z,19.5
2019-02-22T10:10:18.782Z,19.5
2019-02-22T10:11:19.084Z,19.5
2019-02-22T10:12:19.354Z,19.5
2019-02-22T10:13:19.323Z,19.5
2019-02-22T10:14:20.668Z,19.5
2019-02-22T10:15:19.056Z,19.5
2019-02-22T10:16:19.107Z,19.5
2019-02-22T10:17:18.724Z,19.5
2019-02-22T10:18:18.747Z,19.5
2019-02-22T10:19:18.840Z,19.5
2019-02-22T10:20:18.869Z,19.5
2019-02-22T10:21:19.041Z,19.5
2019-02-22T10:22:19.084Z,19.5
2019-02-22T10:23:18.968Z,19.5
2019-02-22T10:24:18.965Z,19.5
2019-02-22T10:25:20.305Z,19.5
2019-02-22T10:26:21.742Z,19.5
2019-02-22T10:27:18.781Z,19.5
2019-02-22T10:28:18.923Z,19.5
2019-02-22T10:29:19.102Z,19.5
2019-02-22T10:30:18.658Z,19.5
2019-02-22T10:31:18.651Z,19.5
2019-02-22T10:32:19.818Z,19.5
2019-02-22T10:33:18.813Z,19.5
2019-02-22T10:34:18.665Z,19.5
2019-02-22T10:35:18.714Z,19.5
2019-02-22T10:36:18.890Z,19.5
2019-02-22T10:37:18.663Z,19.5
2019-02-22T10:38:18.819Z,19.5
2019-02-22T10:39:18.731Z,19.5
2019-02-22T10:40:18.738Z,19.5
2019-02-22T10:41:19.159Z,19.5
2019-02-22T10:42:18.997Z,19.5
2019-02-22T10:43:19.025Z,19.5
2019-02-22T10:44:18.754Z,19.5
2019-02-22T10:45:18.962Z,19.5
2019-02-22T10:46:18.935Z,19.5
2019-02-22T10:47:20.496Z,19.5
2019-02-22T10:48:19.716Z,19.5
2019-02-22T10:49:18.881Z,19.5
2019-02-22T10:50:20.505Z,19.5
2019-02-22T10:51:18.740Z,19.5
2019-02-22T10:52:19.183Z,19.5
2019-02-22T10:53:18.804Z,19.5
2019-02-22T10:54:18.774Z,19.5
2019-02-22T10:55:19.308Z,19.5
2019-02-22T10:56:18.610Z,19.5
2019-02-22T10:57:19.015Z,19.5
2019-02-22T10:58:18.906Z,19.5
2019-02-22T10:59:18.790Z,19.5
2019-02-22T11:00:18.727Z,19.5
2019-02-22T11:01:19.066Z,19.75
2019-02-22T11:02:18.680Z,19.75
2019-02-22T11:03:18.935Z,19.75
2019-02-22T11:04:19.188Z,19.75
2019-02-22T11:05:19.673Z,19.75
2019-02-22T11:06:18.944Z,19.75
2019-02-22T11:07:18.757Z,19.75
2019-02-22T11:08:18.971Z,19.75
2019-02-22T11:09:19.788Z,19.75
2019-02-22T11:10:19.672Z,19.75
2019-02-22T11:11:18.634Z,19.75
2019-02-22T11:12:19.423Z,19.75
2019-02-22T11:13:21.688Z,19.75
2019-02-22T11:14:29.900Z,19.75
2019-02-22T11:15:18.821Z,19.75
2019-02-22T11:16:19.144Z,19.75
2019-02-22T11:17:18.950Z,19.75
2019-02-22T11:18:19.025Z,19.75
2019-02-22T11:19:18.810Z,19.75
2019-02-22T11:20:20.545Z,20
2019-02-22T11:21:19.151Z,20
2019-02-22T11:22:18.754Z,20
2019-02-22T11:23:19.116Z,20
2019-02-22T11:24:20.576Z,20
2019-02-22T11:25:18.466Z,20
2019-02-22T11:26:19.046Z,20
2019-02-22T11:27:19.391Z,20
2019-02-22T11:28:18.723Z,20
2019-02-22T11:29:20.535Z,20
2019-02-22T11:30:19.610Z,20
2019-02-22T11:31:18.825Z,20
2019-02-22T11:32:19.799Z,20
2019-02-22T11:33:19.632Z,20
2019-02-22T11:34:18.869Z,20
2019-02-22T11:35:18.694Z,20
2019-02-22T11:36:19.190Z,20
2019-02-22T11:37:18.768Z,20
2019-02-22T11:38:18.897Z,20
2019-02-22T11:39:18.806Z,20
2019-02-22T11:40:19.092Z,20
2019-02-22T11:41:18.713Z,20
2019-02-22T11:42:20.444Z,20
2019-02-22T11:43:18.701Z,20.25
2019-02-22T11:44:18.771Z,20.25
2019-02-22T11:45:18.772Z,20.25
2019-02-22T11:46:19.034Z,20.25
2019-02-22T11:47:18.733Z,20.25
2019-02-22T11:48:18.854Z,20.25
2019-02-22T11:49:18.544Z,20.25
2019-02-22T11:50:18.391Z,20.25
2019-02-22T11:51:18.926Z,20.25
2019-02-22T11:52:18.767Z,20.25
2019-02-22T11:53:18.603Z,20.25
2019-02-22T11:54:18.911Z,20.25
2019-02-22T11:55:20.599Z,20.25
2019-02-22T11:56:18.874Z,20.25
2019-02-22T11:57:20.577Z,20.25
2019-02-22T11:58:19.103Z,20.25
2019-02-22T11:59:18.706Z,20.25
2019-02-22T12:00:18.673Z,20.25
2019-02-22T12:01:19.054Z,20.25
2019-02-22T12:02:18.856Z,20.25
2019-02-22T12:03:25.421Z,20.25
2019-02-22T12:04:19.221Z,20.25
2019-02-22T12:05:18.431Z,20.25
2019-02-22T12:06:18.875Z,20.25
2019-02-22T12:07:19.097Z,20.25
2019-02-22T12:08:18.903Z,20.25
2019-02-22T12:09:18.821Z,20.25
2019-02-22T12:10:18.843Z,20.25
2019-02-22T12:11:19.154Z,20.25
2019-02-22T12:12:18.907Z,20.25
2019-02-22T12:13:19.148Z,20.25
2019-02-22T12:14:18.662Z,20.25
2019-02-22T12:15:19.052Z,20.25
2019-02-22T12:16:19.066Z,20.25
2019-02-22T12:17:19.565Z,20.25
2019-02-22T12:18:19.072Z,20.25
2019-02-22T12:19:20.470Z,20.25
2019-02-22T12:20:18.590Z,20.25
2019-02-22T12:21:18.883Z,20.25
2019-02-22T12:22:18.779Z,20.25
2019-02-22T12:23:18.882Z,20.25
2019-02-22T12:24:19.001Z,20.25
2019-02-22T12:25:20.035Z,20.25
2019-02-22T12:26:19.674Z,20.25
2019-02-22T12:27:19.458Z,20.25
2019-02-22T12:28:18.521Z,20.25
2019-02-22T12:29:18.549Z,20.25
2019-02-22T12:30:18.688Z,20.25
2019-02-22T12:31:19.070Z,20.25
2019-02-22T12:32:18.763Z,20.25
2019-02-22T12:33:18.857Z,20.25
2019-02-22T12:34:19.659Z,20.25
2019-02-22T12:35:18.666Z,20.25
2019-02-22T12:36:18.683Z,20.25
2019-02-22T12:37:19.827Z,20.25
2019-02-22T12:38:18.671Z,20.25
2019-02-22T12:39:19.400Z,20.25
2019-02-22T12:40:19.017Z,20.25
2019-02-22T12:41:18.685Z,20.25
2019-02-22T12:42:18.748Z,20.25
2019-02-22T12:43:18.837Z,20.25
2019-02-22T12:44:18.892Z,20.25
2019-02-22T12:45:18.688Z,20.25
2019-02-22T12:46:18.741Z,20.25
2019-02-22T12:47:19.041Z,20.25
2019-02-22T12:48:19.307Z,20.25
2019-02-22T12:49:18.765Z,20.25
2019-02-22T12:50:18.639Z,20.25
2019-02-22T12:51:19.039Z,20.25
2019-02-22T12:52:18.706Z,20.25
2019-02-22T12:53:18.573Z,20.25
2019-02-22T12:54:18.883Z,20.25
2019-02-22T12:55:18.546Z,20.25
2019-02-22T12:56:58.286Z,20.25
2019-02-22T12:57:19.149Z,20.25
2019-02-22T12:58:19.123Z,20.25
2019-02-22T12:59:18.619Z,20.25
2019-02-22T13:00:19.062Z,20.25
2019-02-22T13:01:19.723Z,20.25
2019-02-22T13:02:19.589Z,20.25
2019-02-22T13:03:18.963Z,20.25
2019-02-22T13:04:19.190Z,20.25
2019-02-22T13:05:18.779Z,20.25
2019-02-22T13:06:18.703Z,20.25
2019-02-22T13:07:19.485Z,20.25
2019-02-22T13:08:18.624Z,20.25
2019-02-22T13:09:18.816Z,20.25
2019-02-22T13:10:18.660Z,20.25
2019-02-22T13:11:18.450Z,20.25
2019-02-22T13:12:18.868Z,20.25
2019-02-22T13:13:18.835Z,20.25
2019-02-22T13:14:18.847Z,20.25
2019-02-22T13:15:18.727Z,20.25
2019-02-22T13:16:20.617Z,20.25
2019-02-22T13:17:18.713Z,20.25
2019-02-22T13:18:18.666Z,20.25
2019-02-22T13:19:18.764Z,20.25
2019-02-22T13:20:18.785Z,20.25
2019-02-22T13:21:19.142Z,20.25
2019-02-22T13:22:19.224Z,20.25
2019-02-22T13:23:18.591Z,20.25
2019-02-22T13:24:19.877Z,20.25